Time;durP1;ratioP1;P1;durP2;ratioP2;P2;SDS_P1;SDS_P2;PMS_P1;PMS_P2;Temp;Humidity;BMP_temperature;BMP_pressure;BME280_temperature;BME280_humidity;BME280_pressure;Samples;Min_cycle;Max_cycle;Signal;HPM_P1;HPM_P2
2021/08/11 00:17:32;;;;;;;11.75;7.45;;;;;;;;;;4251609;31;20407;-67
2021/08/11 00:19:57;;;;;;;12.77;7.28;;;;;;;;;;4286761;33;20098;-68
2021/08/11 00:22:23;;;;;;;12.73;8.25;;;;;;;;;;4288395;33;20111;-67
2021/08/11 00:24:49;;;;;;;11.05;6.90;;;;;;;;;;4294084;33;20108;-67
2021/08/11 00:27:15;;;;;;;16.77;7.47;;;;;;;;;;4302535;33;20115;-68
2021/08/11 00:29:41;;;;;;;12.45;7.60;;;;;;;;;;4302580;33;20465;-68
2021/08/11 00:32:07;;;;;;;12.20;7.50;;;;;;;;;;4302518;33;20531;-68
2021/08/11 00:34:33;;;;;;;15.00;6.65;;;;;;;;;;4289427;33;20427;-67
2021/08/11 00:36:58;;;;;;;15.73;8.20;;;;;;;;;;4288022;33;20107;-67
2021/08/11 00:39:24;;;;;;;12.18;7.45;;;;;;;;;;4288093;33;20131;-67
2021/08/11 00:41:50;;;;;;;15.02;6.72;;;;;;;;;;4296434;33;20535;-65
2021/08/11 00:44:16;;;;;;;10.35;6.95;;;;;;;;;;4294273;33;20231;-65
2021/08/11 00:46:45;;;;;;;12.00;7.10;;;;;;;;;;4298649;33;20128;-65
2021/08/11 00:49:14;;;;;;;8.35;6.32;;;;;;;;;;4274443;33;20140;-65
2021/08/11 00:51:41;;;;;;;10.25;6.85;;;;;;;;;;4295801;33;20282;-65
2021/08/11 00:54:07;;;;;;;10.75;5.97;;;;;;;;;;4302728;33;20545;-65
2021/08/11 00:56:34;;;;;;;14.82;7.00;;;;;;;;;;4304805;33;20130;-65
2021/08/11 00:59:02;;;;;;;11.63;6.85;;;;;;;;;;4303753;33;20439;-65
2021/08/11 01:01:30;;;;;;;11.52;7.05;;;;;;;;;;4277078;33;20114;-65
2021/08/11 01:03:56;;;;;;;8.05;6.75;;;;;;;;;;4265118;33;20221;-65
2021/08/11 01:06:21;;;;;;;12.32;6.70;;;;;;;;;;4290043;33;20527;-65
2021/08/11 01:08:47;;;;;;;16.77;7.37;;;;;;;;;;4264810;33;20611;-65
2021/08/11 01:11:13;;;;;;;12.25;6.93;;;;;;;;;;4289951;33;20482;-65
2021/08/11 01:13:41;;;;;;;13.80;6.68;;;;;;;;;;4277006;33;20210;-65
2021/08/11 01:16:07;;;;;;;10.35;6.82;;;;;;;;;;4263022;33;20108;-66
2021/08/11 01:18:33;;;;;;;11.38;7.32;;;;;;;;;;4300481;33;20127;-66
2021/08/11 01:21:12;;;;;;;12.48;7.57;;;;;;;;;;4289891;33;20111;-65
2021/08/11 01:23:50;;;;;;;10.50;6.85;;;;;;;;;;4290138;33;20092;-65
2021/08/11 01:26:22;;;;;;;10.27;6.87;;;;;;;;;;4288749;33;20123;-65
2021/08/11 01:28:59;;;;;;;11.90;7.45;;;;;;;;;;4288603;33;20160;-65
2021/08/11 01:31:30;;;;;;;8.65;7.05;;;;;;;;;;4277003;33;20116;-65
2021/08/11 01:34:09;;;;;;;12.93;7.93;;;;;;;;;;4288505;33;20099;-65
2021/08/11 01:36:55;;;;;;;10.95;7.45;;;;;;;;;;4288835;33;20459;-65
2021/08/11 01:39:35;;;;;;;11.60;7.72;;;;;;;;;;4288651;33;20191;-65
2021/08/11 01:42:15;;;;;;;9.65;7.37;;;;;;;;;;4288625;33;20447;-65
2021/08/11 01:44:54;;;;;;;12.37;8.07;;;;;;;;;;4288428;33;20114;-65
2021/08/11 01:47:24;;;;;;;14.48;8.43;;;;;;;;;;4288342;33;20213;-65
2021/08/11 01:49:49;;;;;;;10.82;8.35;;;;;;;;;;4288516;33;20116;-65
2021/08/11 01:52:15;;;;;;;10.63;7.70;;;;;;;;;;4289756;33;20429;-65
2021/08/11 01:54:42;;;;;;;13.23;7.68;;;;;;;;;;4276338;33;20098;-65
2021/08/11 01:57:07;;;;;;;11.65;7.68;;;;;;;;;;4275898;33;20098;-65
2021/08/11 01:59:33;;;;;;;14.95;8.18;;;;;;;;;;4288146;33;20474;-65
2021/08/11 02:01:59;;;;;;;11.90;7.90;;;;;;;;;;4287928;33;20107;-65
2021/08/11 02:04:25;;;;;;;14.23;8.60;;;;;;;;;;4288082;33;20191;-66
2021/08/11 02:06:51;;;;;;;15.98;9.70;;;;;;;;;;4275833;33;20128;-65
2021/08/11 02:09:17;;;;;;;11.02;8.75;;;;;;;;;;4288205;33;20731;-66
2021/08/11 02:11:43;;;;;;;14.60;9.75;;;;;;;;;;4288209;33;20130;-66
2021/08/11 02:14:09;;;;;;;15.75;9.48;;;;;;;;;;4289417;33;20480;-68
2021/08/11 02:16:39;;;;;;;18.65;9.40;;;;;;;;;;4287897;33;20171;-66
2021/08/11 02:19:06;;;;;;;18.25;8.98;;;;;;;;;;4288659;33;20103;-66
2021/08/11 02:21:32;;;;;;;22.65;9.73;;;;;;;;;;4289621;33;20622;-66
2021/08/11 02:23:58;;;;;;;16.08;10.30;;;;;;;;;;4289464;33;20215;-66
2021/08/11 02:26:48;;;;;;;19.08;12.10;;;;;;;;;;4276322;33;20222;-66
2021/08/11 02:29:20;;;;;;;14.00;10.85;;;;;;;;;;4288203;33;20523;-66
2021/08/11 02:32:01;;;;;;;12.68;8.07;;;;;;;;;;4289405;33;20508;-66
2021/08/11 02:34:33;;;;;;;12.57;7.40;;;;;;;;;;4289609;33;20123;-66
2021/08/11 02:37:02;;;;;;;19.20;8.38;;;;;;;;;;4276126;33;20116;-66
2021/08/11 02:39:58;;;;;;;14.93;8.90;;;;;;;;;;4289325;33;20096;-66
2021/08/11 02:42:31;;;;;;;15.52;8.05;;;;;;;;;;4286514;33;20099;-65
2021/08/11 02:45:00;;;;;;;13.55;7.47;;;;;;;;;;4287835;33;20117;-65
2021/08/11 02:47:25;;;;;;;15.10;8.68;;;;;;;;;;4288036;33;20120;-65
2021/08/11 02:49:51;;;;;;;14.02;8.50;;;;;;;;;;4288015;33;20142;-65
2021/08/11 02:52:17;;;;;;;14.35;8.38;;;;;;;;;;4288113;33;20218;-64
2021/08/11 02:54:43;;;;;;;13.75;8.50;;;;;;;;;;4287919;33;20127;-65
2021/08/11 02:57:09;;;;;;;13.00;8.38;;;;;;;;;;4287924;33;20439;-65
2021/08/11 02:59:36;;;;;;;11.50;7.87;;;;;;;;;;4287638;33;20100;-65
2021/08/11 03:02:02;;;;;;;12.95;8.32;;;;;;;;;;4275685;33;20126;-65
2021/08/11 03:04:29;;;;;;;12.02;7.43;;;;;;;;;;4289283;33;20402;-65
2021/08/11 03:06:55;;;;;;;14.57;7.53;;;;;;;;;;4287442;33;20106;-65
2021/08/11 03:09:21;;;;;;;12.52;7.18;;;;;;;;;;4287047;33;20210;-65
2021/08/11 03:11:47;;;;;;;12.20;7.07;;;;;;;;;;4286595;33;20096;-66
2021/08/11 03:14:16;;;;;;;11.98;7.40;;;;;;;;;;4286268;33;20139;-65
2021/08/11 03:16:42;;;;;;;16.02;7.55;;;;;;;;;;4285941;33;20104;-65
2021/08/11 03:19:08;;;;;;;8.23;6.53;;;;;;;;;;4287432;33;20233;-65
2021/08/11 03:21:34;;;;;;;15.27;7.20;;;;;;;;;;4287085;33;20139;-66
2021/08/11 03:24:00;;;;;;;9.20;6.07;;;;;;;;;;4286672;33;20123;-65
2021/08/11 03:26:26;;;;;;;13.73;5.95;;;;;;;;;;4286659;33;20326;-65
2021/08/11 03:28:58;;;;;;;10.40;5.87;;;;;;;;;;4286491;33;20120;-65
2021/08/11 03:31:26;;;;;;;20.23;5.82;;;;;;;;;;4285133;33;20138;-65
2021/08/11 03:33:52;;;;;;;8.48;5.22;;;;;;;;;;4286746;33;20190;-65
2021/08/11 03:36:18;;;;;;;11.18;6.30;;;;;;;;;;4286332;33;20130;-66
2021/08/11 03:38:44;;;;;;;8.73;6.07;;;;;;;;;;4287446;33;20531;-66
2021/08/11 03:41:10;;;;;;;11.25;6.10;;;;;;;;;;4288648;33;20182;-66
2021/08/11 03:43:35;;;;;;;13.95;6.18;;;;;;;;;;4287058;33;20563;-66
2021/08/11 03:46:01;;;;;;;15.07;6.07;;;;;;;;;;4288530;33;20127;-66
2021/08/11 03:48:27;;;;;;;10.27;6.55;;;;;;;;;;4288795;33;20225;-66
2021/08/11 03:50:53;;;;;;;10.82;6.15;;;;;;;;;;4288571;33;20455;-66
2021/08/11 03:53:19;;;;;;;11.30;5.87;;;;;;;;;;4288341;33;20214;-66
2021/08/11 03:55:45;;;;;;;11.23;5.72;;;;;;;;;;4288338;33;20462;-66
2021/08/11 03:58:11;;;;;;;15.18;6.85;;;;;;;;;;4288345;33;20444;-66
2021/08/11 04:00:37;;;;;;;15.43;7.15;;;;;;;;;;4288351;33;20614;-66
2021/08/11 04:03:03;;;;;;;13.70;6.68;;;;;;;;;;4288330;33;20166;-66
2021/08/11 04:05:28;;;;;;;15.30;6.72;;;;;;;;;;4288238;33;20516;-66
2021/08/11 04:07:54;;;;;;;16.12;6.55;;;;;;;;;;4288223;33;20130;-66
2021/08/11 04:10:20;;;;;;;12.60;6.95;;;;;;;;;;4288036;33;20127;-66
2021/08/11 04:12:46;;;;;;;18.17;6.62;;;;;;;;;;4288499;33;20123;-66
2021/08/11 04:15:12;;;;;;;14.20;7.85;;;;;;;;;;4286638;33;20297;-66
2021/08/11 04:17:38;;;;;;;10.40;6.82;;;;;;;;;;4286788;33;20112;-66
2021/08/11 04:20:05;;;;;;;13.65;7.07;;;;;;;;;;4288095;33;20429;-66
2021/08/11 04:22:31;;;;;;;19.75;8.38;;;;;;;;;;4288166;33;20538;-68
2021/08/11 04:24:57;;;;;;;11.85;6.75;;;;;;;;;;4288393;33;20130;-66
2021/08/11 04:27:22;;;;;;;17.80;6.53;;;;;;;;;;4288293;33;20151;-66
2021/08/11 04:29:48;;;;;;;12.35;6.47;;;;;;;;;;4288800;33;20187;-66
2021/08/11 04:32:14;;;;;;;10.27;6.87;;;;;;;;;;4290200;33;20119;-66
2021/08/11 04:34:40;;;;;;;10.90;6.43;;;;;;;;;;4290403;33;20202;-66
2021/08/11 04:37:06;;;;;;;10.65;6.15;;;;;;;;;;4290342;33;20108;-66
2021/08/11 04:39:33;;;;;;;22.62;7.20;;;;;;;;;;4290267;33;20468;-66
2021/08/11 04:41:58;;;;;;;13.38;6.07;;;;;;;;;;4290332;33;20620;-66
2021/08/11 04:44:24;;;;;;;25.30;6.85;;;;;;;;;;4288827;33;20164;-66
2021/08/11 04:46:50;;;;;;;9.23;6.00;;;;;;;;;;4290269;33;20116;-66
2021/08/11 04:49:16;;;;;;;16.67;7.12;;;;;;;;;;4290261;33;20152;-66
2021/08/11 04:51:42;;;;;;;12.23;6.03;;;;;;;;;;4290326;33;20112;-66
2021/08/11 04:54:08;;;;;;;21.65;6.22;;;;;;;;;;4290201;33;20131;-66
2021/08/11 04:56:34;;;;;;;15.63;6.03;;;;;;;;;;4290309;33;20492;-66
2021/08/11 04:59:00;;;;;;;12.40;6.43;;;;;;;;;;4290172;33;20131;-66
2021/08/11 05:01:26;;;;;;;13.57;6.10;;;;;;;;;;4290062;33;20112;-66
2021/08/11 05:03:51;;;;;;;15.82;6.18;;;;;;;;;;4290105;33;20143;-66
2021/08/11 05:06:17;;;;;;;19.62;6.15;;;;;;;;;;4290204;33;20499;-66
2021/08/11 05:08:43;;;;;;;17.67;5.85;;;;;;;;;;4288754;33;20765;-66
2021/08/11 05:11:09;;;;;;;11.73;5.68;;;;;;;;;;4289987;33;20107;-66
2021/08/11 05:13:35;;;;;;;10.45;5.45;;;;;;;;;;4290191;33;20175;-66
2021/08/11 05:16:01;;;;;;;13.40;6.62;;;;;;;;;;4293696;33;20432;-66
2021/08/11 05:18:27;;;;;;;12.43;5.85;;;;;;;;;;4304401;33;20104;-65
2021/08/11 05:20:53;;;;;;;10.50;6.20;;;;;;;;;;4304544;33;20118;-66
2021/08/11 05:23:19;;;;;;;15.38;6.37;;;;;;;;;;4304490;33;20135;-66
2021/08/11 05:25:45;;;;;;;17.15;6.12;;;;;;;;;;4304483;33;20131;-66
2021/08/11 05:28:11;;;;;;;10.93;6.25;;;;;;;;;;4304471;33;20122;-66
2021/08/11 05:30:40;;;;;;;7.87;5.78;;;;;;;;;;4304334;33;20123;-66
2021/08/11 05:33:06;;;;;;;10.45;5.93;;;;;;;;;;4304824;33;20099;-66
2021/08/11 05:35:32;;;;;;;16.25;6.30;;;;;;;;;;4304770;33;20596;-66
2021/08/11 05:37:58;;;;;;;12.13;5.90;;;;;;;;;;4304297;33;20131;-66
2021/08/11 05:40:24;;;;;;;20.85;5.80;;;;;;;;;;4303572;33;20123;-66
2021/08/11 05:42:50;;;;;;;12.40;4.90;;;;;;;;;;4304017;33;20115;-67
2021/08/11 05:45:16;;;;;;;6.30;3.85;;;;;;;;;;4303944;33;20206;-67
2021/08/11 05:47:42;;;;;;;4.78;3.40;;;;;;;;;;4304152;33;20221;-66
2021/08/11 05:50:08;;;;;;;8.45;5.32;;;;;;;;;;4304045;33;20109;-67
2021/08/11 05:52:34;;;;;;;5.03;3.58;;;;;;;;;;4304045;33;20124;-67
2021/08/11 05:55:00;;;;;;;11.15;4.80;;;;;;;;;;4304283;33;20139;-67
2021/08/11 05:57:26;;;;;;;6.53;3.65;;;;;;;;;;4304292;33;20116;-67
2021/08/11 05:59:52;;;;;;;6.87;4.72;;;;;;;;;;4304074;33;20107;-67
2021/08/11 06:02:18;;;;;;;5.47;3.33;;;;;;;;;;4304196;33;20211;-67
2021/08/11 06:04:44;;;;;;;8.77;4.90;;;;;;;;;;4303980;33;20115;-67
2021/08/11 06:07:10;;;;;;;7.57;4.30;;;;;;;;;;4303982;33;20130;-67
2021/08/11 06:09:36;;;;;;;10.55;6.15;;;;;;;;;;4304005;33;20107;-67
2021/08/11 06:12:02;;;;;;;4.87;3.72;;;;;;;;;;4303985;33;20131;-67
2021/08/11 06:14:28;;;;;;;6.65;3.10;;;;;;;;;;4303961;33;20119;-67
2021/08/11 06:16:54;;;;;;;11.65;5.15;;;;;;;;;;4303598;33;20233;-68
2021/08/11 06:19:20;;;;;;;5.68;3.83;;;;;;;;;;4303825;33;20122;-68
2021/08/11 06:21:45;;;;;;;9.60;4.80;;;;;;;;;;4303940;33;20438;-66
2021/08/11 06:24:11;;;;;;;11.80;5.65;;;;;;;;;;4303823;33;20150;-66
2021/08/11 06:26:37;;;;;;;6.62;3.97;;;;;;;;;;4304068;33;20099;-66
2021/08/11 06:29:03;;;;;;;7.12;5.53;;;;;;;;;;4303839;33;20126;-66
2021/08/11 06:31:29;;;;;;;10.63;5.60;;;;;;;;;;4290389;33;20127;-71
2021/08/11 06:33:55;;;;;;;13.20;6.12;;;;;;;;;;4303790;33;20578;-65
2021/08/11 06:36:21;;;;;;;10.70;5.72;;;;;;;;;;4290430;33;20203;-64
2021/08/11 06:38:47;;;;;;;19.02;6.57;;;;;;;;;;4303637;33;20107;-64
2021/08/11 06:41:16;;;;;;;12.98;5.12;;;;;;;;;;4290405;33;20614;-65
2021/08/11 06:43:45;;;;;;;8.63;5.55;;;;;;;;;;4303716;33;20138;-64
2021/08/11 06:46:12;;;;;;;13.62;6.15;;;;;;;;;;4290156;33;20123;-65
2021/08/11 06:48:38;;;;;;;13.45;5.82;;;;;;;;;;4290204;33;20163;-65
2021/08/11 06:51:05;;;;;;;11.18;5.15;;;;;;;;;;4303455;33;20130;-66
2021/08/11 06:53:31;;;;;;;8.70;5.55;;;;;;;;;;4303562;33;20181;-65
2021/08/11 06:55:57;;;;;;;9.27;4.70;;;;;;;;;;4290218;33;20111;-65
2021/08/11 06:58:23;;;;;;;21.92;5.75;;;;;;;;;;4303731;33;20138;-64
2021/08/11 07:00:50;;;;;;;11.93;5.12;;;;;;;;;;4303827;33;20131;-64
2021/08/11 07:03:18;;;;;;;10.85;5.10;;;;;;;;;;4303988;33;20103;-65
2021/08/11 07:05:45;;;;;;;7.80;4.65;;;;;;;;;;4290545;33;20118;-64
2021/08/11 07:08:11;;;;;;;8.40;4.93;;;;;;;;;;4290303;33;20172;-64
2021/08/11 07:10:37;;;;;;;7.80;5.43;;;;;;;;;;4303430;33;20220;-64
2021/08/11 07:13:03;;;;;;;9.73;5.60;;;;;;;;;;4303422;33;20138;-65
2021/08/11 07:15:29;;;;;;;12.23;4.50;;;;;;;;;;4303260;33;20515;-66
2021/08/11 07:17:55;;;;;;;9.18;5.22;;;;;;;;;;4303475;33;20118;-64
2021/08/11 07:20:22;;;;;;;12.73;5.60;;;;;;;;;;4303303;33;20129;-67
2021/08/11 07:22:48;;;;;;;9.60;5.30;;;;;;;;;;4303587;33;20111;-64
2021/08/11 07:25:14;;;;;;;9.60;6.28;;;;;;;;;;4303490;33;20123;-64
2021/08/11 07:27:40;;;;;;;11.45;6.10;;;;;;;;;;4303877;33;20149;-66
2021/08/11 07:30:06;;;;;;;8.23;5.18;;;;;;;;;;4303260;33;20119;-66
2021/08/11 07:32:32;;;;;;;10.93;5.72;;;;;;;;;;4290131;33;20107;-66
2021/08/11 07:34:58;;;;;;;6.70;4.65;;;;;;;;;;4303255;33;20123;-66
2021/08/11 07:37:24;;;;;;;7.35;3.90;;;;;;;;;;4303308;33;20136;-65
2021/08/11 07:39:53;;;;;;;13.35;3.50;;;;;;;;;;4303096;33;20127;-66
2021/08/11 07:42:20;;;;;;;8.55;6.07;;;;;;;;;;4303201;33;20130;-65
2021/08/11 07:44:46;;;;;;;13.93;6.53;;;;;;;;;;4303242;33;20103;-65
2021/08/11 07:47:11;;;;;;;12.30;6.10;;;;;;;;;;4303096;33;20470;-65
2021/08/11 07:49:38;;;;;;;3.90;2.70;;;;;;;;;;4303087;33;20141;-65
2021/08/11 07:52:04;;;;;;;15.48;5.75;;;;;;;;;;4289567;33;20556;-65
2021/08/11 07:54:30;;;;;;;8.65;5.07;;;;;;;;;;4303460;33;20110;-66
2021/08/11 07:56:56;;;;;;;3.62;2.72;;;;;;;;;;4289996;33;20126;-65
2021/08/11 07:59:22;;;;;;;15.68;6.12;;;;;;;;;;4302851;33;20218;-65
2021/08/11 08:01:48;;;;;;;8.82;4.72;;;;;;;;;;4303087;33;20125;-65
2021/08/11 08:04:14;;;;;;;13.85;5.35;;;;;;;;;;4291001;33;20582;-66
2021/08/11 08:06:40;;;;;;;3.15;2.45;;;;;;;;;;4305149;33;20107;-69
2021/08/11 08:09:08;;;;;;;2.47;1.92;;;;;;;;;;4305165;33;20155;-67
2021/08/11 08:11:34;;;;;;;8.13;2.83;;;;;;;;;;4305002;33;20175;-65
2021/08/11 08:14:00;;;;;;;10.90;5.55;;;;;;;;;;4305147;33;20419;-66
2021/08/11 08:16:26;;;;;;;12.23;6.45;;;;;;;;;;4305286;33;20115;-66
2021/08/11 08:18:53;;;;;;;7.90;4.50;;;;;;;;;;4291636;33;20605;-66
2021/08/11 08:21:18;;;;;;;6.00;4.05;;;;;;;;;;4305100;33;20119;-65
2021/08/11 08:23:44;;;;;;;11.27;5.62;;;;;;;;;;4305021;33;20242;-66
2021/08/11 08:26:10;;;;;;;15.23;5.50;;;;;;;;;;4304804;33;20521;-65
2021/08/11 08:28:36;;;;;;;12.35;5.25;;;;;;;;;;4304888;33;20127;-66
2021/08/11 08:31:02;;;;;;;13.90;6.12;;;;;;;;;;4304853;33;20217;-66
2021/08/11 08:33:28;;;;;;;11.82;5.87;;;;;;;;;;4304808;33;20135;-66
2021/08/11 08:35:54;;;;;;;10.20;6.05;;;;;;;;;;4291333;33;20225;-65
2021/08/11 08:38:20;;;;;;;9.68;6.00;;;;;;;;;;4304677;33;20671;-65
2021/08/11 08:40:47;;;;;;;8.07;5.80;;;;;;;;;;4304679;33;20442;-65
2021/08/11 08:43:13;;;;;;;9.27;5.35;;;;;;;;;;4304586;33;20213;-65
2021/08/11 08:45:42;;;;;;;13.23;6.35;;;;;;;;;;4291475;33;20106;-65
2021/08/11 08:48:08;;;;;;;5.22;3.78;;;;;;;;;;4291891;33;20122;-65
2021/08/11 08:50:34;;;;;;;8.45;5.22;;;;;;;;;;4291214;33;20108;-65
2021/08/11 08:53:01;;;;;;;6.35;4.60;;;;;;;;;;4304656;33;20154;-65
2021/08/11 08:55:27;;;;;;;8.05;4.97;;;;;;;;;;4304788;33;20170;-65
2021/08/11 08:57:53;;;;;;;4.50;3.67;;;;;;;;;;4304520;33;20218;-65
2021/08/11 09:00:19;;;;;;;17.30;7.43;;;;;;;;;;4291021;33;20095;-65
2021/08/11 09:02:45;;;;;;;6.35;4.82;;;;;;;;;;4291150;33;20607;-65
2021/08/11 09:05:11;;;;;;;12.98;5.50;;;;;;;;;;4291068;33;20114;-65
2021/08/11 09:07:45;;;;;;;8.43;5.40;;;;;;;;;;4304497;33;20175;-65
2021/08/11 09:10:14;;;;;;;8.25;5.80;;;;;;;;;;4304512;33;20134;-65
2021/08/11 09:12:44;;;;;;;8.02;5.70;;;;;;;;;;4304536;33;20112;-65
2021/08/11 09:15:50;;;;;;;8.90;4.43;;;;;;;;;;4303570;33;20431;-65
2021/08/11 09:18:19;;;;;;;7.03;4.60;;;;;;;;;;4302870;33;20184;-65
2021/08/11 09:21:10;;;;;;;12.10;5.45;;;;;;;;;;4304278;33;20478;-66
2021/08/11 09:23:37;;;;;;;9.52;5.47;;;;;;;;;;4287789;33;20115;-65
2021/08/11 09:26:05;;;;;;;10.80;7.82;;;;;;;;;;4304633;33;20190;-65
2021/08/11 09:28:32;;;;;;;8.82;5.40;;;;;;;;;;4304450;33;20092;-65
2021/08/11 09:30:58;;;;;;;7.87;5.28;;;;;;;;;;4304669;33;20200;-65
2021/08/11 09:33:24;;;;;;;8.75;4.82;;;;;;;;;;4304432;33;20206;-65
2021/08/11 09:35:51;;;;;;;7.18;4.82;;;;;;;;;;4290830;33;20190;-66
2021/08/11 09:38:17;;;;;;;16.85;4.87;;;;;;;;;;4290850;33;20551;-66
2021/08/11 09:40:43;;;;;;;8.23;4.97;;;;;;;;;;4304304;33;20099;-65
2021/08/11 09:43:11;;;;;;;6.53;4.65;;;;;;;;;;4304253;33;20130;-65
2021/08/11 09:45:47;;;;;;;8.15;4.57;;;;;;;;;;4291028;33;20541;-65
2021/08/11 09:48:23;;;;;;;11.93;5.03;;;;;;;;;;4304381;33;20116;-66
2021/08/11 09:50:51;;;;;;;10.30;5.32;;;;;;;;;;4304280;33;20122;-65
2021/08/11 09:53:26;;;;;;;10.32;4.75;;;;;;;;;;4304309;33;20193;-66
2021/08/11 09:56:02;;;;;;;16.02;5.40;;;;;;;;;;4304259;33;20130;-65
2021/08/11 09:58:43;;;;;;;8.35;4.68;;;;;;;;;;4291218;33;20456;-65
2021/08/11 10:01:12;;;;;;;7.95;4.90;;;;;;;;;;4304374;33;20107;-65
2021/08/11 10:03:54;;;;;;;8.77;5.32;;;;;;;;;;4304230;33;20456;-65
2021/08/11 10:06:26;;;;;;;9.48;5.22;;;;;;;;;;4291017;33;20126;-66
2021/08/11 10:08:52;;;;;;;9.00;4.47;;;;;;;;;;4291016;33;20117;-64
2021/08/11 10:11:34;;;;;;;12.02;6.90;;;;;;;;;;4304075;33;20107;-65
2021/08/11 10:14:00;;;;;;;7.05;4.72;;;;;;;;;;4290799;33;20104;-64
2021/08/11 10:16:27;;;;;;;8.35;4.97;;;;;;;;;;4290329;33;20124;-65
2021/08/11 10:18:53;;;;;;;5.70;4.55;;;;;;;;;;4290664;33;20102;-64
2021/08/11 10:21:19;;;;;;;7.90;4.90;;;;;;;;;;4290656;33;20206;-64
2021/08/11 10:23:45;;;;;;;5.87;2.95;;;;;;;;;;4290576;33;20443;-65
2021/08/11 10:26:11;;;;;;;6.68;3.70;;;;;;;;;;4290110;33;20107;-65
2021/08/11 10:28:36;;;;;;;10.45;4.85;;;;;;;;;;4303840;33;20107;-66
2021/08/11 10:31:02;;;;;;;5.57;4.62;;;;;;;;;;4290461;33;20194;-66
2021/08/11 10:33:28;;;;;;;11.32;5.10;;;;;;;;;;4290848;33;20095;-66
2021/08/11 10:35:54;;;;;;;8.80;4.95;;;;;;;;;;4290388;33;20096;-65
2021/08/11 10:38:20;;;;;;;7.20;4.87;;;;;;;;;;4290370;33;20503;-65
2021/08/11 10:40:50;;;;;;;11.52;5.60;;;;;;;;;;4290463;33;20546;-64
2021/08/11 10:43:16;;;;;;;8.35;5.22;;;;;;;;;;4278480;33;20128;-65
2021/08/11 10:45:42;;;;;;;7.87;4.65;;;;;;;;;;4290310;33;20217;-65
2021/08/11 10:48:17;;;;;;;9.52;5.25;;;;;;;;;;4290304;33;20127;-66
2021/08/11 10:50:45;;;;;;;9.60;5.05;;;;;;;;;;4290499;33;20095;-65
2021/08/11 10:53:11;;;;;;;7.97;4.82;;;;;;;;;;4290245;33;20115;-65
2021/08/11 10:55:45;;;;;;;6.60;5.10;;;;;;;;;;4303612;33;20124;-64
2021/08/11 10:58:13;;;;;;;9.63;5.37;;;;;;;;;;4303620;33;20531;-65
2021/08/11 11:00:41;;;;;;;9.63;4.82;;;;;;;;;;4290044;33;20639;-66
2021/08/11 11:03:07;;;;;;;7.10;5.03;;;;;;;;;;4303606;33;20123;-67
2021/08/11 11:05:33;;;;;;;12.50;5.45;;;;;;;;;;4290158;33;20110;-65
2021/08/11 11:08:15;;;;;;;5.75;4.78;;;;;;;;;;4303522;33;20180;-65
2021/08/11 11:10:45;;;;;;;6.00;4.28;;;;;;;;;;4303298;33;20131;-64
2021/08/11 11:13:23;;;;;;;5.75;3.87;;;;;;;;;;4303502;33;20115;-64
2021/08/11 11:15:52;;;;;;;6.68;4.97;;;;;;;;;;4303215;33;20106;-64
2021/08/11 11:18:20;;;;;;;7.70;4.35;;;;;;;;;;4303241;33;20134;-65
2021/08/11 11:20:56;;;;;;;14.30;4.50;;;;;;;;;;4303348;33;20190;-64
2021/08/11 11:23:41;;;;;;;7.07;4.97;;;;;;;;;;4303342;33;20095;-65
2021/08/11 11:26:11;;;;;;;6.82;3.80;;;;;;;;;;4303758;33;20198;-65
2021/08/11 11:28:55;;;;;;;7.22;4.90;;;;;;;;;;4303410;33;20455;-64
2021/08/11 11:31:31;;;;;;;6.32;4.30;;;;;;;;;;4303267;33;20216;-64
2021/08/11 11:34:23;;;;;;;5.82;4.10;;;;;;;;;;4303310;33;20113;-64
2021/08/11 11:36:55;;;;;;;10.07;5.28;;;;;;;;;;4303371;33;20193;-65
2021/08/11 11:39:25;;;;;;;9.05;4.85;;;;;;;;;;4302359;33;20483;-64
2021/08/11 11:42:06;;;;;;;8.88;4.87;;;;;;;;;;4303452;33;20110;-64
2021/08/11 11:44:41;;;;;;;6.80;4.10;;;;;;;;;;4288846;33;20133;-64
2021/08/11 11:47:08;;;;;;;5.32;3.92;;;;;;;;;;4288640;33;20190;-64
2021/08/11 11:49:34;;;;;;;7.30;3.95;;;;;;;;;;4288622;33;20209;-64
2021/08/11 11:52:01;;;;;;;7.80;4.50;;;;;;;;;;4288632;33;20155;-64
2021/08/11 11:54:27;;;;;;;7.05;4.00;;;;;;;;;;4275528;33;20108;-64
2021/08/11 11:56:53;;;;;;;6.60;4.03;;;;;;;;;;4288519;33;20529;-64
2021/08/11 11:59:19;;;;;;;11.88;3.83;;;;;;;;;;4288730;33;20114;-64
2021/08/11 12:01:45;;;;;;;9.82;4.87;;;;;;;;;;4275467;33;20523;-64
2021/08/11 12:04:10;;;;;;;8.75;4.78;;;;;;;;;;4275176;33;20202;-64
2021/08/11 12:06:45;;;;;;;7.45;4.75;;;;;;;;;;4275063;33;20109;-64
2021/08/11 12:09:11;;;;;;;8.30;4.60;;;;;;;;;;4288420;33;20107;-64
2021/08/11 12:11:37;;;;;;;6.85;3.92;;;;;;;;;;4275517;33;20410;-64
2021/08/11 12:14:03;;;;;;;6.37;3.78;;;;;;;;;;4288447;33;20127;-64
2021/08/11 12:16:35;;;;;;;5.32;3.67;;;;;;;;;;4288387;33;20172;-64
2021/08/11 12:19:18;;;;;;;8.90;3.70;;;;;;;;;;4288239;33;20134;-64
2021/08/11 12:21:44;;;;;;;6.93;4.03;;;;;;;;;;4288553;33;20444;-65
2021/08/11 12:24:10;;;;;;;6.40;4.28;;;;;;;;;;4288203;33;20206;-65
2021/08/11 12:26:38;;;;;;;6.47;3.67;;;;;;;;;;4288429;33;20470;-65
2021/08/11 12:29:13;;;;;;;5.05;3.67;;;;;;;;;;4288634;33;20452;-65
2021/08/11 12:31:40;;;;;;;9.40;3.97;;;;;;;;;;4275144;33;20114;-65
2021/08/11 12:34:08;;;;;;;9.65;3.78;;;;;;;;;;4275285;33;20138;-65
2021/08/11 12:36:35;;;;;;;8.82;4.35;;;;;;;;;;4274774;33;20119;-65
2021/08/11 12:39:11;;;;;;;8.70;3.95;;;;;;;;;;4288105;33;20127;-65
2021/08/11 12:41:39;;;;;;;5.50;3.80;;;;;;;;;;4287071;33;20230;-65
2021/08/11 12:44:22;;;;;;;6.35;3.67;;;;;;;;;;4299851;33;20444;-65
2021/08/11 12:46:51;;;;;;;7.25;4.10;;;;;;;;;;4289175;33;20487;-66
2021/08/11 12:49:21;;;;;;;6.22;3.67;;;;;;;;;;4303085;33;20197;-65
2021/08/11 12:51:49;;;;;;;11.05;3.55;;;;;;;;;;4305052;33;20115;-66
2021/08/11 12:54:14;;;;;;;7.82;4.75;;;;;;;;;;4291667;33;20185;-65
2021/08/11 12:56:57;;;;;;;5.32;4.05;;;;;;;;;;4305099;33;20135;-65
2021/08/11 12:59:23;;;;;;;8.40;5.07;;;;;;;;;;4304983;33;20103;-64
2021/08/11 13:01:49;;;;;;;7.32;4.07;;;;;;;;;;4304915;33;20206;-65
2021/08/11 13:04:15;;;;;;;5.28;3.10;;;;;;;;;;4304673;33;20183;-65
2021/08/11 13:06:46;;;;;;;5.75;4.07;;;;;;;;;;4304906;33;20470;-64
2021/08/11 13:09:19;;;;;;;7.03;4.10;;;;;;;;;;4304410;33;20439;-67
2021/08/11 13:12:01;;;;;;;7.57;4.25;;;;;;;;;;4304659;33;20142;-66
2021/08/11 13:14:45;;;;;;;6.07;3.70;;;;;;;;;;4304863;33;20111;-67
2021/08/11 13:17:12;;;;;;;4.37;3.50;;;;;;;;;;4304242;33;20123;-67
2021/08/11 13:19:38;;;;;;;10.82;5.43;;;;;;;;;;4304621;33;20609;-67
2021/08/11 13:22:04;;;;;;;8.43;3.80;;;;;;;;;;4290977;33;20103;-66
2021/08/11 13:24:30;;;;;;;5.87;3.78;;;;;;;;;;4304361;33;20142;-66
2021/08/11 13:26:57;;;;;;;6.90;3.70;;;;;;;;;;4304252;33;20118;-67
2021/08/11 13:29:28;;;;;;;5.97;4.25;;;;;;;;;;4291247;33;20087;-67
2021/08/11 13:31:54;;;;;;;17.55;4.35;;;;;;;;;;4304493;33;20617;-67
2021/08/11 13:34:20;;;;;;;5.93;3.72;;;;;;;;;;4304340;33;20458;-67
2021/08/11 13:36:47;;;;;;;5.95;4.00;;;;;;;;;;4304242;33;20111;-67
2021/08/11 13:39:13;;;;;;;5.78;2.45;;;;;;;;;;4304481;33;20171;-67
2021/08/11 13:41:39;;;;;;;5.15;3.67;;;;;;;;;;4304508;33;20119;-67
2021/08/11 13:44:05;;;;;;;4.90;3.80;;;;;;;;;;4304421;33;20103;-67
2021/08/11 13:46:30;;;;;;;6.93;4.10;;;;;;;;;;4304517;33;20095;-67
2021/08/11 13:48:56;;;;;;;6.53;4.05;;;;;;;;;;4290932;33;20530;-67
2021/08/11 13:51:22;;;;;;;9.52;4.20;;;;;;;;;;4304398;33;20092;-67
2021/08/11 13:53:48;;;;;;;6.95;4.60;;;;;;;;;;4304296;33;20223;-67
2021/08/11 13:56:15;;;;;;;12.40;4.40;;;;;;;;;;4304273;33;20175;-67
2021/08/11 13:58:41;;;;;;;4.57;2.95;;;;;;;;;;4290513;33;20177;-67
2021/08/11 14:01:07;;;;;;;5.00;3.20;;;;;;;;;;4303668;33;20099;-67
2021/08/11 14:03:33;;;;;;;7.82;4.43;;;;;;;;;;4304299;33;20107;-67
2021/08/11 14:05:58;;;;;;;7.87;4.00;;;;;;;;;;4304235;33;20439;-67
2021/08/11 14:08:24;;;;;;;6.35;4.10;;;;;;;;;;4303988;33;20115;-67
2021/08/11 14:10:50;;;;;;;10.18;4.18;;;;;;;;;;4302884;33;20209;-67
2021/08/11 14:13:16;;;;;;;8.70;4.70;;;;;;;;;;4288336;33;20123;-68
2021/08/11 14:15:42;;;;;;;9.07;4.53;;;;;;;;;;4304216;33;20528;-66
2021/08/11 14:18:08;;;;;;;5.60;4.12;;;;;;;;;;4303816;33;20523;-66
2021/08/11 14:20:34;;;;;;;11.20;4.47;;;;;;;;;;4303944;33;20519;-66
2021/08/11 14:23:00;;;;;;;7.50;4.62;;;;;;;;;;4303931;33;20617;-67
2021/08/11 14:25:26;;;;;;;5.82;4.25;;;;;;;;;;4303909;33;20186;-67
2021/08/11 14:27:52;;;;;;;7.57;3.80;;;;;;;;;;4304059;33;20103;-65
2021/08/11 14:30:18;;;;;;;10.05;4.78;;;;;;;;;;4303795;33;20133;-67
2021/08/11 14:32:46;;;;;;;8.82;4.80;;;;;;;;;;4303895;33;20309;-67
2021/08/11 14:35:15;;;;;;;11.40;4.45;;;;;;;;;;4303925;33;20214;-67
2021/08/11 14:37:41;;;;;;;6.97;4.20;;;;;;;;;;4304162;33;20100;-67
2021/08/11 14:40:08;;;;;;;6.37;2.58;;;;;;;;;;4290212;33;20103;-67
2021/08/11 14:42:37;;;;;;;8.45;4.75;;;;;;;;;;4304054;33;20111;-66
2021/08/11 14:45:03;;;;;;;7.43;4.87;;;;;;;;;;4303643;33;20129;-66
2021/08/11 14:47:29;;;;;;;8.27;3.78;;;;;;;;;;4303819;33;20107;-65
2021/08/11 14:49:55;;;;;;;10.45;5.15;;;;;;;;;;4303785;33;20130;-66
2021/08/11 14:52:21;;;;;;;7.80;4.40;;;;;;;;;;4303539;33;20190;-66
2021/08/11 14:54:47;;;;;;;8.05;4.20;;;;;;;;;;4303807;33;20104;-66
2021/08/11 14:57:13;;;;;;;11.52;5.62;;;;;;;;;;4303776;33;20134;-66